Nearby METAR Reports

 

KHEZ - Natchez/Hardy, Mississippi, USA
Distance from station: W 24mi, 38km
Updated: Sat, 21-Oct-2017 7:25pm CDT
Light rain, Partly cloudy
Light rain, Partly cloudy
 Wind from ESE
Wind: ESE 6 mph , 9 km/h
Temperature: 75°F , 24°C
Dew Point: 73°F , 23°C
Humidity: 94%
Barometer: 30.01 inHg , 1016.3 hPa
Summary: Light rain
Clouds: Partly cloudy
Visibility: 10 miles , 16 km
Cloud details: Partly cloudy 1800 ft
2017/10/22 00:25 KHEZ 220025Z AUTO 11005KT 10SM -RA SCT018 24/23 A3001 RMK AO2 P0001
K1R7 - Brookhaven, Mississippi, USA
Distance from station: E 28mi, 46km
Updated: Wed, 21-Jun-2017 3:15pm CDT
NOT Current
Mostly cloudy
Mostly cloudy
 Wind from ENE
Wind: ENE 3 mph , 6 km/h
Temperature: 77°F , 25°C
Dew Point: 75°F , 24°C
Humidity: 94%
Barometer: 29.83 inHg , 1010.2 hPa
Clouds: Mostly cloudy
Visibility: 10 miles , 16 km
Cloud details: Mostly cloudy 500 ft
2017/06/21 20:15 K1R7 212015Z AUTO 06003KT 10SM BKN005 25/24 A2983 RMK AO2
 
KMCB - Mccomb, Mississippi, USA
Distance from station: SE 38mi, 61km
Updated: Sat, 21-Oct-2017 7:53pm CDT
Few Clouds
Few Clouds
 Wind from SE
Wind: SE 10 mph , 17 km/h
Temperature: 75°F , 24°C
Dew Point: 72°F , 22°C
Humidity: 89%
Barometer: 30.05 inHg , 1017.6 hPa
Clouds: Few Clouds
Visibility: 9 miles , 14 km
Cloud details: Few Clouds 1700 ft
2017/10/22 00:53 KMCB 220053Z AUTO 13009KT 9SM FEW017 24/22 A3005 RMK AO2 LTG DSNT SW SLP171 T02390217
KTVR - Tallulah/Vicksbu, Louisiana, USA
Distance from station: N 53mi, 86km
Updated: Sat, 21-Oct-2017 7:53pm CDT
Partly cloudy
Partly cloudy
 Wind from ESE
Wind: ESE 9 mph , 15 km/h
Temperature: 75°F , 24°C
Dew Point: 73°F , 23°C
Humidity: 94%
Barometer: 30.02 inHg , 1016.6 hPa
Clouds: Partly cloudy
Visibility: 10 miles , 16 km
Cloud details: Few Clouds 4600 ft
Partly cloudy 7500 ft
2017/10/22 00:53 KTVR 220053Z AUTO 12008KT 10SM FEW046 SCT075 24/23 A3002 RMK AO2 LTG DSNT N AND NW SLP171 T02440228
 
KJVW - Raymond, Mississippi, USA
Distance from station: NNE 57mi, 91km
Updated: Sat, 21-Oct-2017 7:55pm CDT
Mostly cloudy
Mostly cloudy
 Wind from ESE
Wind: ESE 5 mph , 7 km/h
Temperature: 73°F , 23°C
Dew Point: 73°F , 23°C
Humidity: 100%
Barometer: 30.05 inHg , 1017.6 hPa
Clouds: Mostly cloudy
Visibility: 8 miles , 13 km
Cloud details: Mostly cloudy 3300 ft
Mostly cloudy 4000 ft
Mostly cloudy 4600 ft
2017/10/22 00:55 KJVW 220055Z AUTO 12004KT 8SM BKN033 BKN040 BKN046 23/23 A3005 RMK AO2 LTG DSNT NW
KHKS - Jackson/Hawkins, Mississippi, USA
Distance from station: NE 65mi, 105km
Updated: Sat, 21-Oct-2017 7:53pm CDT
Overcast
Overcast
 Wind from ESE
Wind: ESE 8 mph , 13 km/h
Temperature: 75°F , 24°C
Dew Point: 72°F , 22°C
Humidity: 89%
Barometer: 30.06 inHg , 1017.9 hPa
Clouds: Overcast
Visibility: 10 miles , 16 km
Cloud details: Few Clouds 2900 ft
Mostly cloudy 4100 ft
Overcast 4900 ft
2017/10/22 00:53 KHKS 220053Z 11007KT 10SM FEW029 BKN041 OVC049 24/22 A3006 RMK AO2 LTG DSNT N AND NE RAE2357 SLP170 P0000 T02390222
 
KHZR - New Roads, Louisiana, USA
Distance from station: SSW 69mi, 112km
Updated: Sat, 21-Oct-2017 7:55pm CDT
Heavy thunderstorm, Rain, Overcast
Heavy thunderstorm, Rain, Overcast
 Wind from calm
Wind: Calm
Temperature: 73°F , 23°C
Dew Point: 72°F , 22°C
Humidity: 94%
Barometer: 30.04 inHg , 1017.3 hPa
Summary: Heavy thunderstorm, Rain
Clouds: Overcast
Visibility: 7 miles , 11 km
Cloud details: Mostly cloudy 800 ft
Overcast 1200 ft
2017/10/22 00:55 KHZR 220055Z AUTO 00000KT 7SM +TSRA BKN008 OVC012 23/22 A3004 RMK AO2 LTG DSNT ALQS P0006 T02300218
KJAN - Jackson, Mississippi, USA
Distance from station: NE 69mi, 112km
Updated: Sat, 21-Oct-2017 7:54pm CDT
Mostly cloudy
Mostly cloudy
 Wind from ESE
Wind: ESE 12 mph , 19 km/h
Temperature: 79°F , 26°C
Dew Point: 70°F , 21°C
Humidity: 74%
Barometer: 30.05 inHg , 1017.6 hPa
Clouds: Mostly cloudy
Visibility: 10 miles , 16 km
Cloud details: Few Clouds 3100 ft
Mostly cloudy 4700 ft
2017/10/22 00:54 KJAN 220054Z 11010KT 10SM FEW031 BKN047 26/21 A3005 RMK AO2 LTG DSNT N AND NW SLP173 CB DSNT N AND NW T02610211
 
KBTR - Baton Rouge, Louisiana, USA
Distance from station: S 74mi, 120km
Updated: Sat, 21-Oct-2017 7:53pm CDT
Thunderstorm, Mostly cloudy
Thunderstorm, Mostly cloudy
 Wind from E
Wind: E 8 mph , 13 km/h
Temperature: 75°F , 24°C
Dew Point: 73°F , 23°C
Humidity: 94%
Barometer: 30.00 inHg , 1015.9 hPa
Summary: Thunderstorm
Clouds: Mostly cloudy
Visibility: 10 miles , 16 km
Cloud details: Partly cloudy 1400 ft
Mostly cloudy 3100 ft
2017/10/22 00:53 KBTR 220053Z 10007KT 070V140 10SM TS SCT014 BKN031CB 24/23 A3000 RMK AO2 LTG DSNT ALQDS RAE08 SLP157 CONST LTG OVHD CCCG P0002 T02440228
KHDC - Hammond, Louisiana, USA
Distance from station: SSE 79mi, 128km
Updated: Sat, 21-Oct-2017 7:55pm CDT
Mostly cloudy
Mostly cloudy
 Wind from ESE
Wind: ESE 12 mph , 19 km/h
Temperature: 77°F , 25°C
Dew Point: 70°F , 21°C
Humidity: 79%
Barometer: 30.03 inHg , 1016.9 hPa
Clouds: Mostly cloudy
Visibility: 10 miles , 16 km
Cloud details: Mostly cloudy 2100 ft
Mostly cloudy 2700 ft
2017/10/22 00:55 KHDC 220055Z AUTO 12010KT 10SM BKN021 BKN027 25/21 A3003 RMK AO2 LTG DSNT W
 
KBXA - Bogalusa Carr F, Louisiana, USA
Distance from station: SE 81mi, 130km
Updated: Sat, 21-Oct-2017 7:55pm CDT
Partly cloudy
Partly cloudy
 Wind from ESE
Wind: ESE 3 mph , 6 km/h
Temperature: 77°F , 25°C
Dew Point: 70°F , 21°C
Humidity: 79%
Barometer: 30.08 inHg , 1018.6 hPa
Clouds: Partly cloudy
Visibility: 10 miles , 16 km
Cloud details: Partly cloudy 1800 ft
Partly cloudy 2300 ft
2017/10/22 00:55 KBXA 220055Z AUTO 12003KT 10SM SCT018 SCT023 25/21 A3008 RMK AO2 LTG DSNT W AND NW T02500213
KESF - Alexandria, Louisiana, USA
Distance from station: W 83mi, 133km
Updated: Sat, 21-Oct-2017 7:53pm CDT
Nearby thunderstorm, Clear
Nearby thunderstorm, Clear
 Wind from varies
Wind: varies 5 mph , 7 km/h
Temperature: 73°F , 23°C
Dew Point: 70°F , 21°C
Humidity: 89%
Barometer: 30.03 inHg , 1016.9 hPa
Summary: Nearby Thunderstorm
Clouds: Clear
Visibility: 10 miles , 16 km
2017/10/22 00:53 KESF 220053Z AUTO VRB04KT 10SM VCTS CLR 23/21 A3003 RMK AO2 LTG DSNT W AND NW PRESRR SLP166 T02280206
 
KMLU - Monroe, Louisiana, USA
Distance from station: NW 92mi, 149km
Updated: Sat, 21-Oct-2017 7:53pm CDT
Light rain, Mostly cloudy
Light rain, Mostly cloudy
 Wind from calm
Wind: Calm
Temperature: 73°F , 23°C
Dew Point: 73°F , 23°C
Humidity: 100%
Barometer: 30.00 inHg , 1015.9 hPa
Summary: Light rain
Clouds: Mostly cloudy
Visibility: 10 miles , 16 km
Cloud details: Few Clouds 3300 ft
Partly cloudy 6500 ft
Mostly cloudy 10000 ft
2017/10/22 00:53 KMLU 220053Z 00000KT 10SM -RA FEW033 SCT065 BKN100 23/23 A3000 RMK AO2 LTG DSNT S AND SW TSE02 SLP157 T02330228 PNO $
KPIB - Pine Belt Rgnl, Mississippi, USA
Distance from station: E 94mi, 150km
Updated: Sat, 21-Oct-2017 7:56pm CDT
Few Clouds
Few Clouds
 Wind from ESE
Wind: ESE 7 mph , 11 km/h
Temperature: 73°F , 23°C
Dew Point: 72°F , 22°C
Humidity: 94%
Barometer: 30.10 inHg , 1019.3 hPa
Clouds: Few Clouds
Visibility: 10 miles , 16 km
Cloud details: Few Clouds 5500 ft
2017/10/22 00:56 KPIB 220056Z AUTO 12006KT 10SM FEW055 23/22 A3010 RMK AO2 SLP191 T02330217
 
KL38 - Gonzales, Louisiana, USA
Distance from station: S 98mi, 158km
Updated: Fri, 03-Mar-2017 2:50pm CST
NOT Current
Clear
Clear
 Wind from ESE
Wind: ESE 8 mph , 13 km/h
Temperature: 70°F , 21°C
Dew Point: 30°F , -1°C
Humidity: 23%
Barometer: 30.46 inHg , 1031.5 hPa
Clouds: Clear
Visibility: 10 miles , 16 km
2017/03/03 20:50 KL38 032050Z AUTO 11007KT 10SM CLR 21/M01 A3046 RMK AO2 T02061013
KBQP - Bastrop Morehous, Louisiana, USA
Distance from station: NW 99mi, 159km
Updated: Sat, 21-Oct-2017 7:55pm CDT
Light rain, Mostly cloudy
Light rain, Mostly cloudy
 Wind from E
Wind: E 3 mph , 6 km/h
Temperature: 73°F , 23°C
Dew Point: 73°F , 23°C
Humidity: 100%
Barometer: 30.00 inHg , 1015.9 hPa
Summary: Light rain
Clouds: Mostly cloudy
Visibility: 10 miles , 16 km
Cloud details: Partly cloudy 4400 ft
Mostly cloudy 6000 ft
Mostly cloudy 7500 ft
2017/10/22 00:55 KBQP 220055Z AUTO 08003KT 10SM -RA SCT044 BKN060 BKN075 23/23 A3000 RMK AO2 LTG DSNT NE THRU SW P0005 T02270225
 
KHBG - Hattiesburg, Mississippi, USA
Distance from station: ESE 100mi, 160km
Updated: Sat, 21-Oct-2017 7:53pm CDT
Clear
Clear
 Wind from SE
Wind: SE 7 mph , 11 km/h
Temperature: 75°F , 24°C
Dew Point: 72°F , 22°C
Humidity: 89%
Barometer: 30.10 inHg , 1019.3 hPa
Clouds: Clear
Visibility: 10 miles , 16 km
2017/10/22 00:53 KHBG 220053Z AUTO 13006KT 10SM CLR 24/22 A3010 RMK AO2 SLP189 T02390217
KAEX - Alexandria, Louisiana, USA
Distance from station: W 100mi, 161km
Updated: Sat, 21-Oct-2017 7:53pm CDT
Thunderstorm, Mostly cloudy
Thunderstorm, Mostly cloudy
 Wind from ESE
Wind: ESE 7 mph , 11 km/h
Temperature: 75°F , 24°C
Dew Point: 70°F , 21°C
Humidity: 83%
Barometer: 30.00 inHg , 1015.9 hPa
Summary: Thunderstorm
Clouds: Mostly cloudy
Visibility: 10 miles , 16 km
Cloud details: Partly cloudy 2400 ft
Mostly cloudy 10000 ft
2017/10/22 00:53 KAEX 220053Z 12006KT 10SM TS SCT024 BKN100 24/21 A3000 RMK AO2 PK WND 13028/2357 LTG DSNT W-NE TSB24 PRESRR SLP161 T02440206
 
KOPL - Opelousas, Louisiana, USA
Distance from station: SW 101mi, 162km
Updated: Sat, 21-Oct-2017 7:40pm CDT
Thunderstorm
Thunderstorm
 Wind from ESE
Wind: ESE 14 mph , 22 km/h, Gust: 21 mph , 33 km/h
Temperature: 73°F , 23°C
Dew Point: 72°F , 22°C
Humidity: 94%
Barometer: 30.01 inHg , 1016.3 hPa
Summary: Thunderstorm
2017/10/22 00:40 KOPL 220040Z AUTO 11012G18KT TS 23/22 A3001 RMK AO2 LTG DSNT ALQS T02300224
KASD - Slidell 22, Louisiana, USA
Distance from station: SE 107mi, 172km
Updated: Sat, 21-Oct-2017 7:53pm CDT
Overcast
Overcast
 Wind from E
Wind: E 10 mph , 17 km/h
Temperature: 79°F , 26°C
Dew Point: 72°F , 22°C
Humidity: 79%
Barometer: 30.05 inHg , 1017.6 hPa
Clouds: Overcast
Visibility: 10 miles , 16 km
Cloud details: Few Clouds 1900 ft
Mostly cloudy 3000 ft
Overcast 3700 ft
2017/10/22 00:53 KASD 220053Z AUTO 10009KT 10SM FEW019 BKN030 OVC037 26/22 A3005 RMK AO2 SLP177 T02560222